sensor_id;sensor_type;location;lat;lon;timestamp;P1;durP1;ratioP1;P2;durP2;ratioP2
71176;SDS011;58877;51.992;4.504;2024-02-15T00:01:23;2.65;;;2.44;;
71176;SDS011;58877;51.992;4.504;2024-02-15T00:03:48;3.23;;;2.97;;
71176;SDS011;58877;51.992;4.504;2024-02-15T00:06:15;2.92;;;2.67;;
71176;SDS011;58877;51.992;4.504;2024-02-15T00:08:40;2.99;;;2.75;;
71176;SDS011;58877;51.992;4.504;2024-02-15T00:11:10;3.40;;;3.13;;
71176;SDS011;58877;51.992;4.504;2024-02-15T00:13:35;2.71;;;2.58;;
71176;SDS011;58877;51.992;4.504;2024-02-15T00:16:01;2.58;;;2.48;;
71176;SDS011;58877;51.992;4.504;2024-02-15T00:18:27;2.81;;;2.67;;
71176;SDS011;58877;51.992;4.504;2024-02-15T00:20:53;3.22;;;3.02;;
71176;SDS011;58877;51.992;4.504;2024-02-15T00:23:19;3.00;;;2.81;;
71176;SDS011;58877;51.992;4.504;2024-02-15T00:25:45;2.93;;;2.77;;
71176;SDS011;58877;51.992;4.504;2024-02-15T00:28:11;2.82;;;2.70;;
71176;SDS011;58877;51.992;4.504;2024-02-15T00:30:38;2.85;;;2.76;;
71176;SDS011;58877;51.992;4.504;2024-02-15T00:33:03;3.05;;;2.96;;
71176;SDS011;58877;51.992;4.504;2024-02-15T00:35:29;3.15;;;3.10;;
71176;SDS011;58877;51.992;4.504;2024-02-15T00:37:55;2.94;;;2.94;;
71176;SDS011;58877;51.992;4.504;2024-02-15T00:40:23;3.39;;;3.37;;
71176;SDS011;58877;51.992;4.504;2024-02-15T00:42:51;3.37;;;3.36;;
71176;SDS011;58877;51.992;4.504;2024-02-15T00:45:17;3.98;;;3.96;;
71176;SDS011;58877;51.992;4.504;2024-02-15T00:47:42;3.91;;;3.85;;
71176;SDS011;58877;51.992;4.504;2024-02-15T00:50:08;4.25;;;4.17;;
71176;SDS011;58877;51.992;4.504;2024-02-15T00:52:38;4.41;;;4.32;;
71176;SDS011;58877;51.992;4.504;2024-02-15T00:55:04;4.41;;;4.32;;
71176;SDS011;58877;51.992;4.504;2024-02-15T00:57:30;4.57;;;4.49;;
71176;SDS011;58877;51.992;4.504;2024-02-15T00:59:55;4.13;;;4.08;;
71176;SDS011;58877;51.992;4.504;2024-02-15T01:02:21;4.87;;;4.83;;
71176;SDS011;58877;51.992;4.504;2024-02-15T01:04:49;4.69;;;4.66;;
71176;SDS011;58877;51.992;4.504;2024-02-15T01:07:15;4.65;;;4.63;;
71176;SDS011;58877;51.992;4.504;2024-02-15T01:09:40;4.72;;;4.72;;
71176;SDS011;58877;51.992;4.504;2024-02-15T01:12:06;4.50;;;4.50;;
71176;SDS011;58877;51.992;4.504;2024-02-15T01:14:32;4.39;;;4.38;;
71176;SDS011;58877;51.992;4.504;2024-02-15T01:16:58;4.48;;;4.48;;
71176;SDS011;58877;51.992;4.504;2024-02-15T01:19:24;5.14;;;5.09;;
71176;SDS011;58877;51.992;4.504;2024-02-15T01:21:52;4.53;;;4.52;;
71176;SDS011;58877;51.992;4.504;2024-02-15T01:24:18;4.45;;;4.44;;
71176;SDS011;58877;51.992;4.504;2024-02-15T01:26:44;4.63;;;4.59;;
71176;SDS011;58877;51.992;4.504;2024-02-15T01:29:10;4.58;;;4.53;;
71176;SDS011;58877;51.992;4.504;2024-02-15T01:31:37;4.31;;;4.26;;
71176;SDS011;58877;51.992;4.504;2024-02-15T01:34:03;4.30;;;4.25;;
71176;SDS011;58877;51.992;4.504;2024-02-15T01:36:29;4.55;;;4.46;;
71176;SDS011;58877;51.992;4.504;2024-02-15T01:38:55;4.18;;;4.09;;
71176;SDS011;58877;51.992;4.504;2024-02-15T01:41:21;4.91;;;4.81;;
71176;SDS011;58877;51.992;4.504;2024-02-15T01:43:47;4.44;;;4.36;;
71176;SDS011;58877;51.992;4.504;2024-02-15T01:46:13;3.79;;;3.76;;
71176;SDS011;58877;51.992;4.504;2024-02-15T01:48:40;4.04;;;4.02;;
71176;SDS011;58877;51.992;4.504;2024-02-15T01:51:07;4.33;;;4.31;;
71176;SDS011;58877;51.992;4.504;2024-02-15T01:53:36;4.15;;;4.10;;
71176;SDS011;58877;51.992;4.504;2024-02-15T01:56:04;4.10;;;4.04;;
71176;SDS011;58877;51.992;4.504;2024-02-15T01:58:30;4.31;;;4.28;;
71176;SDS011;58877;51.992;4.504;2024-02-15T02:00:57;4.57;;;4.50;;
71176;SDS011;58877;51.992;4.504;2024-02-15T02:03:25;4.49;;;4.45;;
71176;SDS011;58877;51.992;4.504;2024-02-15T02:05:51;4.19;;;4.15;;
71176;SDS011;58877;51.992;4.504;2024-02-15T02:08:16;4.09;;;4.03;;
71176;SDS011;58877;51.992;4.504;2024-02-15T02:10:42;4.33;;;4.23;;
71176;SDS011;58877;51.992;4.504;2024-02-15T02:13:08;4.37;;;4.29;;
71176;SDS011;58877;51.992;4.504;2024-02-15T02:15:35;4.51;;;4.38;;
71176;SDS011;58877;51.992;4.504;2024-02-15T02:18:11;4.38;;;4.23;;
71176;SDS011;58877;51.992;4.504;2024-02-15T02:20:36;4.17;;;4.05;;
71176;SDS011;58877;51.992;4.504;2024-02-15T02:23:14;4.11;;;4.03;;
71176;SDS011;58877;51.992;4.504;2024-02-15T02:25:44;4.32;;;4.20;;
71176;SDS011;58877;51.992;4.504;2024-02-15T02:28:11;3.99;;;3.92;;
71176;SDS011;58877;51.992;4.504;2024-02-15T02:30:38;4.11;;;4.00;;
71176;SDS011;58877;51.992;4.504;2024-02-15T02:33:10;4.23;;;4.06;;
71176;SDS011;58877;51.992;4.504;2024-02-15T02:35:36;4.14;;;4.03;;
71176;SDS011;58877;51.992;4.504;2024-02-15T02:38:02;4.17;;;4.06;;
71176;SDS011;58877;51.992;4.504;2024-02-15T02:40:28;4.18;;;4.04;;
71176;SDS011;58877;51.992;4.504;2024-02-15T02:42:55;3.74;;;3.63;;
71176;SDS011;58877;51.992;4.504;2024-02-15T02:45:27;3.78;;;3.66;;
71176;SDS011;58877;51.992;4.504;2024-02-15T02:47:52;3.91;;;3.76;;
71176;SDS011;58877;51.992;4.504;2024-02-15T02:50:19;4.21;;;3.97;;
71176;SDS011;58877;51.992;4.504;2024-02-15T02:52:46;3.87;;;3.67;;
71176;SDS011;58877;51.992;4.504;2024-02-15T02:55:13;3.85;;;3.64;;
71176;SDS011;58877;51.992;4.504;2024-02-15T02:57:39;3.54;;;3.32;;
71176;SDS011;58877;51.992;4.504;2024-02-15T03:00:07;3.80;;;3.62;;
71176;SDS011;58877;51.992;4.504;2024-02-15T03:02:38;3.93;;;3.72;;
71176;SDS011;58877;51.992;4.504;2024-02-15T03:05:05;3.61;;;3.45;;
71176;SDS011;58877;51.992;4.504;2024-02-15T03:07:33;3.44;;;3.37;;
71176;SDS011;58877;51.992;4.504;2024-02-15T03:10:06;3.60;;;3.51;;
71176;SDS011;58877;51.992;4.504;2024-02-15T03:12:36;3.40;;;3.27;;
71176;SDS011;58877;51.992;4.504;2024-02-15T03:15:06;3.68;;;3.47;;
71176;SDS011;58877;51.992;4.504;2024-02-15T03:17:39;3.52;;;3.28;;
71176;SDS011;58877;51.992;4.504;2024-02-15T03:20:15;3.47;;;3.30;;
71176;SDS011;58877;51.992;4.504;2024-02-15T03:22:56;3.43;;;3.27;;
71176;SDS011;58877;51.992;4.504;2024-02-15T03:25:23;3.57;;;3.45;;
71176;SDS011;58877;51.992;4.504;2024-02-15T03:27:50;3.44;;;3.35;;
71176;SDS011;58877;51.992;4.504;2024-02-15T03:30:17;3.64;;;3.55;;
71176;SDS011;58877;51.992;4.504;2024-02-15T03:32:45;3.91;;;3.79;;
71176;SDS011;58877;51.992;4.504;2024-02-15T03:35:14;3.61;;;3.52;;
71176;SDS011;58877;51.992;4.504;2024-02-15T03:37:43;4.14;;;4.03;;
71176;SDS011;58877;51.992;4.504;2024-02-15T03:40:09;4.20;;;4.09;;
71176;SDS011;58877;51.992;4.504;2024-02-15T03:42:35;4.19;;;4.15;;
71176;SDS011;58877;51.992;4.504;2024-02-15T03:45:05;3.94;;;3.92;;
71176;SDS011;58877;51.992;4.504;2024-02-15T03:47:32;4.00;;;4.00;;
71176;SDS011;58877;51.992;4.504;2024-02-15T03:49:59;4.14;;;4.14;;
71176;SDS011;58877;51.992;4.504;2024-02-15T03:52:24;3.86;;;3.86;;
71176;SDS011;58877;51.992;4.504;2024-02-15T03:54:50;3.85;;;3.85;;
71176;SDS011;58877;51.992;4.504;2024-02-15T03:57:17;3.77;;;3.77;;
71176;SDS011;58877;51.992;4.504;2024-02-15T03:59:46;3.85;;;3.85;;
71176;SDS011;58877;51.992;4.504;2024-02-15T04:02:15;3.83;;;3.83;;
71176;SDS011;58877;51.992;4.504;2024-02-15T04:04:41;3.73;;;3.73;;
71176;SDS011;58877;51.992;4.504;2024-02-15T04:07:08;3.80;;;3.80;;
71176;SDS011;58877;51.992;4.504;2024-02-15T04:09:36;3.42;;;3.42;;
71176;SDS011;58877;51.992;4.504;2024-02-15T04:12:02;3.88;;;3.88;;
71176;SDS011;58877;51.992;4.504;2024-02-15T04:14:28;3.73;;;3.73;;
71176;SDS011;58877;51.992;4.504;2024-02-15T04:16:53;3.81;;;3.81;;
71176;SDS011;58877;51.992;4.504;2024-02-15T04:19:19;3.84;;;3.84;;
71176;SDS011;58877;51.992;4.504;2024-02-15T04:21:47;3.76;;;3.76;;
71176;SDS011;58877;51.992;4.504;2024-02-15T04:24:13;4.14;;;4.14;;
71176;SDS011;58877;51.992;4.504;2024-02-15T04:26:39;4.14;;;4.14;;
71176;SDS011;58877;51.992;4.504;2024-02-15T04:29:05;4.04;;;4.04;;
71176;SDS011;58877;51.992;4.504;2024-02-15T04:31:33;4.05;;;4.04;;
71176;SDS011;58877;51.992;4.504;2024-02-15T04:34:02;4.66;;;4.66;;
71176;SDS011;58877;51.992;4.504;2024-02-15T04:36:28;4.71;;;4.70;;
71176;SDS011;58877;51.992;4.504;2024-02-15T04:38:59;4.62;;;4.62;;
71176;SDS011;58877;51.992;4.504;2024-02-15T04:41:25;4.87;;;4.87;;
71176;SDS011;58877;51.992;4.504;2024-02-15T04:43:50;5.24;;;5.24;;
71176;SDS011;58877;51.992;4.504;2024-02-15T04:46:19;5.17;;;5.17;;
71176;SDS011;58877;51.992;4.504;2024-02-15T04:48:48;5.59;;;5.59;;
71176;SDS011;58877;51.992;4.504;2024-02-15T04:51:17;6.00;;;6.00;;
71176;SDS011;58877;51.992;4.504;2024-02-15T04:53:45;5.61;;;5.61;;
71176;SDS011;58877;51.992;4.504;2024-02-15T04:56:13;6.29;;;6.29;;
71176;SDS011;58877;51.992;4.504;2024-02-15T04:58:42;5.62;;;5.62;;
71176;SDS011;58877;51.992;4.504;2024-02-15T05:01:17;5.87;;;5.86;;
71176;SDS011;58877;51.992;4.504;2024-02-15T05:03:43;5.41;;;5.41;;
71176;SDS011;58877;51.992;4.504;2024-02-15T05:06:09;5.81;;;5.81;;
71176;SDS011;58877;51.992;4.504;2024-02-15T05:08:38;5.40;;;5.40;;
71176;SDS011;58877;51.992;4.504;2024-02-15T05:11:10;5.23;;;5.23;;
71176;SDS011;58877;51.992;4.504;2024-02-15T05:13:49;5.40;;;5.39;;
71176;SDS011;58877;51.992;4.504;2024-02-15T05:16:17;5.63;;;5.62;;
71176;SDS011;58877;51.992;4.504;2024-02-15T05:18:43;5.26;;;5.26;;
71176;SDS011;58877;51.992;4.504;2024-02-15T05:21:10;5.19;;;5.18;;
71176;SDS011;58877;51.992;4.504;2024-02-15T05:23:37;4.60;;;4.58;;
71176;SDS011;58877;51.992;4.504;2024-02-15T05:26:07;5.20;;;5.18;;
71176;SDS011;58877;51.992;4.504;2024-02-15T05:28:33;5.19;;;5.18;;
71176;SDS011;58877;51.992;4.504;2024-02-15T05:33:45;4.86;;;4.86;;
71176;SDS011;58877;51.992;4.504;2024-02-15T05:36:14;4.99;;;4.99;;
71176;SDS011;58877;51.992;4.504;2024-02-15T05:38:46;4.60;;;4.60;;
71176;SDS011;58877;51.992;4.504;2024-02-15T05:41:13;5.36;;;5.36;;
71176;SDS011;58877;51.992;4.504;2024-02-15T05:43:39;5.49;;;5.49;;
71176;SDS011;58877;51.992;4.504;2024-02-15T05:46:07;5.23;;;5.23;;
71176;SDS011;58877;51.992;4.504;2024-02-15T05:48:34;5.31;;;5.31;;
71176;SDS011;58877;51.992;4.504;2024-02-15T05:51:03;5.59;;;5.55;;
71176;SDS011;58877;51.992;4.504;2024-02-15T05:53:30;5.42;;;5.36;;
71176;SDS011;58877;51.992;4.504;2024-02-15T05:55:56;5.02;;;4.99;;
71176;SDS011;58877;51.992;4.504;2024-02-15T05:58:24;5.05;;;5.04;;
71176;SDS011;58877;51.992;4.504;2024-02-15T06:00:50;5.26;;;5.24;;
71176;SDS011;58877;51.992;4.504;2024-02-15T06:03:17;4.59;;;4.56;;
71176;SDS011;58877;51.992;4.504;2024-02-15T06:05:43;3.76;;;3.76;;
71176;SDS011;58877;51.992;4.504;2024-02-15T06:08:12;3.68;;;3.68;;
71176;SDS011;58877;51.992;4.504;2024-02-15T06:10:38;3.62;;;3.62;;
71176;SDS011;58877;51.992;4.504;2024-02-15T06:13:05;3.21;;;3.21;;
71176;SDS011;58877;51.992;4.504;2024-02-15T06:15:31;3.32;;;3.31;;
71176;SDS011;58877;51.992;4.504;2024-02-15T06:17:57;3.06;;;3.06;;
71176;SDS011;58877;51.992;4.504;2024-02-15T06:20:28;3.20;;;3.20;;
71176;SDS011;58877;51.992;4.504;2024-02-15T06:22:55;3.08;;;3.08;;
71176;SDS011;58877;51.992;4.504;2024-02-15T06:25:20;3.14;;;3.14;;
71176;SDS011;58877;51.992;4.504;2024-02-15T06:27:47;3.74;;;3.74;;
71176;SDS011;58877;51.992;4.504;2024-02-15T06:30:14;3.39;;;3.39;;
71176;SDS011;58877;51.992;4.504;2024-02-15T06:32:58;3.38;;;3.38;;
71176;SDS011;58877;51.992;4.504;2024-02-15T06:35:43;3.33;;;3.33;;
71176;SDS011;58877;51.992;4.504;2024-02-15T06:38:27;3.70;;;3.70;;
71176;SDS011;58877;51.992;4.504;2024-02-15T06:41:12;3.35;;;3.35;;
71176;SDS011;58877;51.992;4.504;2024-02-15T06:43:37;3.26;;;3.26;;
71176;SDS011;58877;51.992;4.504;2024-02-15T06:46:08;3.11;;;3.11;;
71176;SDS011;58877;51.992;4.504;2024-02-15T06:48:35;2.86;;;2.85;;
71176;SDS011;58877;51.992;4.504;2024-02-15T06:51:02;3.18;;;3.18;;
71176;SDS011;58877;51.992;4.504;2024-02-15T06:53:31;3.78;;;3.78;;
71176;SDS011;58877;51.992;4.504;2024-02-15T06:55:57;4.06;;;4.06;;
71176;SDS011;58877;51.992;4.504;2024-02-15T06:58:23;3.83;;;3.83;;
71176;SDS011;58877;51.992;4.504;2024-02-15T07:00:49;3.94;;;3.94;;
71176;SDS011;58877;51.992;4.504;2024-02-15T07:03:15;4.13;;;4.13;;
71176;SDS011;58877;51.992;4.504;2024-02-15T07:05:42;3.94;;;3.94;;
71176;SDS011;58877;51.992;4.504;2024-02-15T07:08:18;4.34;;;4.34;;
71176;SDS011;58877;51.992;4.504;2024-02-15T07:10:43;4.39;;;4.39;;
71176;SDS011;58877;51.992;4.504;2024-02-15T07:13:09;4.51;;;4.50;;
71176;SDS011;58877;51.992;4.504;2024-02-15T07:15:35;4.67;;;4.65;;
71176;SDS011;58877;51.992;4.504;2024-02-15T07:18:04;4.64;;;4.62;;
71176;SDS011;58877;51.992;4.504;2024-02-15T07:20:31;4.75;;;4.73;;
71176;SDS011;58877;51.992;4.504;2024-02-15T07:22:58;4.27;;;4.25;;
71176;SDS011;58877;51.992;4.504;2024-02-15T07:25:24;4.17;;;4.16;;
71176;SDS011;58877;51.992;4.504;2024-02-15T07:27:49;4.46;;;4.46;;
71176;SDS011;58877;51.992;4.504;2024-02-15T07:30:15;4.48;;;4.45;;
71176;SDS011;58877;51.992;4.504;2024-02-15T07:32:40;4.32;;;4.23;;
71176;SDS011;58877;51.992;4.504;2024-02-15T07:35:06;3.94;;;3.88;;
71176;SDS011;58877;51.992;4.504;2024-02-15T07:37:33;4.04;;;4.02;;
71176;SDS011;58877;51.992;4.504;2024-02-15T07:40:19;4.28;;;4.28;;
71176;SDS011;58877;51.992;4.504;2024-02-15T07:43:05;4.45;;;4.44;;
71176;SDS011;58877;51.992;4.504;2024-02-15T07:45:34;4.14;;;4.12;;
71176;SDS011;58877;51.992;4.504;2024-02-15T07:48:03;3.80;;;3.78;;
71176;SDS011;58877;51.992;4.504;2024-02-15T07:50:32;3.95;;;3.93;;
71176;SDS011;58877;51.992;4.504;2024-02-15T07:52:58;4.22;;;4.21;;
71176;SDS011;58877;51.992;4.504;2024-02-15T07:55:24;3.67;;;3.67;;
71176;SDS011;58877;51.992;4.504;2024-02-15T07:57:50;3.55;;;3.55;;
71176;SDS011;58877;51.992;4.504;2024-02-15T08:00:16;3.37;;;3.37;;
71176;SDS011;58877;51.992;4.504;2024-02-15T08:02:42;3.68;;;3.67;;
71176;SDS011;58877;51.992;4.504;2024-02-15T08:05:12;3.64;;;3.63;;
71176;SDS011;58877;51.992;4.504;2024-02-15T08:07:43;3.19;;;3.19;;
71176;SDS011;58877;51.992;4.504;2024-02-15T08:10:13;3.53;;;3.53;;
71176;SDS011;58877;51.992;4.504;2024-02-15T08:12:42;3.31;;;3.31;;
71176;SDS011;58877;51.992;4.504;2024-02-15T08:15:09;3.28;;;3.28;;
71176;SDS011;58877;51.992;4.504;2024-02-15T08:17:40;3.26;;;3.25;;
71176;SDS011;58877;51.992;4.504;2024-02-15T08:20:12;3.35;;;3.33;;
71176;SDS011;58877;51.992;4.504;2024-02-15T08:22:46;3.16;;;3.16;;
71176;SDS011;58877;51.992;4.504;2024-02-15T08:25:13;3.44;;;3.44;;
71176;SDS011;58877;51.992;4.504;2024-02-15T08:27:44;3.89;;;3.86;;
71176;SDS011;58877;51.992;4.504;2024-02-15T08:30:15;3.95;;;3.92;;
71176;SDS011;58877;51.992;4.504;2024-02-15T08:32:41;4.05;;;4.04;;
71176;SDS011;58877;51.992;4.504;2024-02-15T08:35:08;4.13;;;4.13;;
71176;SDS011;58877;51.992;4.504;2024-02-15T08:37:38;4.85;;;4.83;;
71176;SDS011;58877;51.992;4.504;2024-02-15T08:40:05;4.64;;;4.63;;
71176;SDS011;58877;51.992;4.504;2024-02-15T08:42:44;4.01;;;4.00;;
71176;SDS011;58877;51.992;4.504;2024-02-15T08:45:21;4.18;;;4.18;;
71176;SDS011;58877;51.992;4.504;2024-02-15T08:47:51;4.50;;;4.46;;
71176;SDS011;58877;51.992;4.504;2024-02-15T08:50:18;4.35;;;4.28;;
71176;SDS011;58877;51.992;4.504;2024-02-15T08:52:46;4.21;;;4.17;;
71176;SDS011;58877;51.992;4.504;2024-02-15T08:55:18;4.16;;;4.12;;
71176;SDS011;58877;51.992;4.504;2024-02-15T08:57:48;3.92;;;3.88;;
71176;SDS011;58877;51.992;4.504;2024-02-15T09:00:14;3.97;;;3.90;;
71176;SDS011;58877;51.992;4.504;2024-02-15T09:02:41;3.67;;;3.60;;
71176;SDS011;58877;51.992;4.504;2024-02-15T09:05:10;3.84;;;3.75;;
71176;SDS011;58877;51.992;4.504;2024-02-15T09:07:40;3.72;;;3.65;;
71176;SDS011;58877;51.992;4.504;2024-02-15T09:10:09;3.75;;;3.71;;
71176;SDS011;58877;51.992;4.504;2024-02-15T09:12:37;3.84;;;3.79;;
71176;SDS011;58877;51.992;4.504;2024-02-15T09:15:07;3.34;;;3.31;;
71176;SDS011;58877;51.992;4.504;2024-02-15T09:17:36;3.43;;;3.40;;
71176;SDS011;58877;51.992;4.504;2024-02-15T09:20:06;3.78;;;3.72;;
71176;SDS011;58877;51.992;4.504;2024-02-15T09:22:46;3.46;;;3.43;;
71176;SDS011;58877;51.992;4.504;2024-02-15T09:25:14;3.55;;;3.50;;
71176;SDS011;58877;51.992;4.504;2024-02-15T09:27:40;3.81;;;3.69;;
71176;SDS011;58877;51.992;4.504;2024-02-15T09:30:07;3.31;;;3.23;;
71176;SDS011;58877;51.992;4.504;2024-02-15T09:32:37;3.39;;;3.31;;
71176;SDS011;58877;51.992;4.504;2024-02-15T09:35:06;3.67;;;3.56;;
71176;SDS011;58877;51.992;4.504;2024-02-15T09:37:37;3.48;;;3.39;;
71176;SDS011;58877;51.992;4.504;2024-02-15T09:40:11;3.23;;;3.15;;
71176;SDS011;58877;51.992;4.504;2024-02-15T09:42:38;3.16;;;3.10;;
71176;SDS011;58877;51.992;4.504;2024-02-15T09:45:08;3.75;;;3.68;;
71176;SDS011;58877;51.992;4.504;2024-02-15T09:47:43;3.93;;;3.80;;
71176;SDS011;58877;51.992;4.504;2024-02-15T09:50:13;3.53;;;3.45;;
71176;SDS011;58877;51.992;4.504;2024-02-15T09:52:52;2.88;;;2.83;;
71176;SDS011;58877;51.992;4.504;2024-02-15T09:55:22;3.15;;;3.14;;
71176;SDS011;58877;51.992;4.504;2024-02-15T09:57:48;3.35;;;3.35;;
71176;SDS011;58877;51.992;4.504;2024-02-15T10:00:15;3.63;;;3.63;;
71176;SDS011;58877;51.992;4.504;2024-02-15T10:02:46;3.16;;;3.16;;
71176;SDS011;58877;51.992;4.504;2024-02-15T10:05:16;3.39;;;3.38;;
71176;SDS011;58877;51.992;4.504;2024-02-15T10:07:43;3.23;;;3.23;;
71176;SDS011;58877;51.992;4.504;2024-02-15T10:10:23;3.56;;;3.54;;
71176;SDS011;58877;51.992;4.504;2024-02-15T10:12:56;3.41;;;3.38;;
71176;SDS011;58877;51.992;4.504;2024-02-15T10:18:08;3.53;;;3.53;;
71176;SDS011;58877;51.992;4.504;2024-02-15T10:20:37;3.99;;;3.95;;
71176;SDS011;58877;51.992;4.504;2024-02-15T10:25:42;3.98;;;3.93;;
71176;SDS011;58877;51.992;4.504;2024-02-15T10:28:22;3.67;;;3.59;;
71176;SDS011;58877;51.992;4.504;2024-02-15T10:30:48;3.51;;;3.49;;
71176;SDS011;58877;51.992;4.504;2024-02-15T10:36:05;3.53;;;3.53;;
71176;SDS011;58877;51.992;4.504;2024-02-15T10:38:35;3.59;;;3.59;;
71176;SDS011;58877;51.992;4.504;2024-02-15T10:41:04;3.40;;;3.39;;
71176;SDS011;58877;51.992;4.504;2024-02-15T10:43:35;3.40;;;3.37;;
71176;SDS011;58877;51.992;4.504;2024-02-15T10:46:06;3.35;;;3.33;;
71176;SDS011;58877;51.992;4.504;2024-02-15T10:48:36;3.55;;;3.51;;
71176;SDS011;58877;51.992;4.504;2024-02-15T10:51:03;3.63;;;3.58;;
71176;SDS011;58877;51.992;4.504;2024-02-15T10:53:35;3.53;;;3.49;;
71176;SDS011;58877;51.992;4.504;2024-02-15T10:56:26;3.47;;;3.44;;
71176;SDS011;58877;51.992;4.504;2024-02-15T10:59:00;3.29;;;3.25;;
71176;SDS011;58877;51.992;4.504;2024-02-15T11:01:49;3.29;;;3.24;;
71176;SDS011;58877;51.992;4.504;2024-02-15T11:04:20;3.57;;;3.56;;
71176;SDS011;58877;51.992;4.504;2024-02-15T11:06:50;4.12;;;4.08;;
71176;SDS011;58877;51.992;4.504;2024-02-15T11:09:20;4.03;;;4.00;;
71176;SDS011;58877;51.992;4.504;2024-02-15T11:11:47;3.52;;;3.52;;
71176;SDS011;58877;51.992;4.504;2024-02-15T11:16:50;4.65;;;4.65;;
71176;SDS011;58877;51.992;4.504;2024-02-15T11:21:57;5.24;;;5.24;;
71176;SDS011;58877;51.992;4.504;2024-02-15T11:24:29;4.74;;;4.74;;
71176;SDS011;58877;51.992;4.504;2024-02-15T11:27:02;5.38;;;5.38;;
71176;SDS011;58877;51.992;4.504;2024-02-15T11:35:18;4.22;;;4.22;;
71176;SDS011;58877;51.992;4.504;2024-02-15T11:40:28;3.64;;;3.64;;
71176;SDS011;58877;51.992;4.504;2024-02-15T11:43:07;3.31;;;3.31;;
71176;SDS011;58877;51.992;4.504;2024-02-15T11:45:34;3.29;;;3.29;;
71176;SDS011;58877;51.992;4.504;2024-02-15T11:48:12;3.01;;;3.01;;
71176;SDS011;58877;51.992;4.504;2024-02-15T11:50:41;3.66;;;3.66;;
71176;SDS011;58877;51.992;4.504;2024-02-15T11:53:07;3.53;;;3.51;;
71176;SDS011;58877;51.992;4.504;2024-02-15T11:55:37;3.17;;;3.12;;
71176;SDS011;58877;51.992;4.504;2024-02-15T11:58:04;2.94;;;2.89;;
71176;SDS011;58877;51.992;4.504;2024-02-15T12:00:31;2.87;;;2.87;;
71176;SDS011;58877;51.992;4.504;2024-02-15T12:03:16;2.83;;;2.83;;
71176;SDS011;58877;51.992;4.504;2024-02-15T12:06:02;2.47;;;2.45;;
71176;SDS011;58877;51.992;4.504;2024-02-15T12:08:48;2.52;;;2.51;;
71176;SDS011;58877;51.992;4.504;2024-02-15T12:11:33;2.39;;;2.37;;
71176;SDS011;58877;51.992;4.504;2024-02-15T12:14:18;2.34;;;2.32;;
71176;SDS011;58877;51.992;4.504;2024-02-15T12:17:03;2.23;;;2.21;;
71176;SDS011;58877;51.992;4.504;2024-02-15T12:19:49;2.14;;;2.11;;
71176;SDS011;58877;51.992;4.504;2024-02-15T12:22:19;2.18;;;2.15;;
71176;SDS011;58877;51.992;4.504;2024-02-15T12:24:58;2.17;;;2.15;;
71176;SDS011;58877;51.992;4.504;2024-02-15T12:27:25;2.11;;;2.08;;
71176;SDS011;58877;51.992;4.504;2024-02-15T12:29:53;2.19;;;2.15;;
71176;SDS011;58877;51.992;4.504;2024-02-15T12:32:26;1.77;;;1.74;;
71176;SDS011;58877;51.992;4.504;2024-02-15T12:34:53;1.81;;;1.78;;
71176;SDS011;58877;51.992;4.504;2024-02-15T12:37:34;2.04;;;2.01;;
71176;SDS011;58877;51.992;4.504;2024-02-15T12:40:09;2.23;;;2.18;;
71176;SDS011;58877;51.992;4.504;2024-02-15T12:42:39;2.07;;;2.00;;
71176;SDS011;58877;51.992;4.504;2024-02-15T12:45:05;2.13;;;2.06;;
71176;SDS011;58877;51.992;4.504;2024-02-15T12:47:33;2.18;;;2.11;;
71176;SDS011;58877;51.992;4.504;2024-02-15T12:50:08;1.97;;;1.90;;
71176;SDS011;58877;51.992;4.504;2024-02-15T12:52:39;2.01;;;1.96;;
71176;SDS011;58877;51.992;4.504;2024-02-15T12:55:09;2.27;;;2.22;;
71176;SDS011;58877;51.992;4.504;2024-02-15T13:00:20;2.22;;;2.19;;
71176;SDS011;58877;51.992;4.504;2024-02-15T13:02:48;2.31;;;2.27;;
71176;SDS011;58877;51.992;4.504;2024-02-15T13:05:19;2.27;;;2.22;;
71176;SDS011;58877;51.992;4.504;2024-02-15T13:07:51;1.99;;;1.96;;
71176;SDS011;58877;51.992;4.504;2024-02-15T13:10:24;1.98;;;1.95;;
71176;SDS011;58877;51.992;4.504;2024-02-15T13:12:51;2.35;;;2.32;;
71176;SDS011;58877;51.992;4.504;2024-02-15T13:15:27;2.36;;;2.36;;
71176;SDS011;58877;51.992;4.504;2024-02-15T13:17:58;2.25;;;2.21;;
71176;SDS011;58877;51.992;4.504;2024-02-15T13:20:44;2.22;;;2.17;;
71176;SDS011;58877;51.992;4.504;2024-02-15T13:23:24;2.60;;;2.56;;
71176;SDS011;58877;51.992;4.504;2024-02-15T13:25:52;2.23;;;2.19;;
71176;SDS011;58877;51.992;4.504;2024-02-15T13:28:22;2.15;;;2.12;;
71176;SDS011;58877;51.992;4.504;2024-02-15T13:30:49;2.42;;;2.39;;
71176;SDS011;58877;51.992;4.504;2024-02-15T13:33:24;2.39;;;2.37;;
71176;SDS011;58877;51.992;4.504;2024-02-15T13:36:10;2.26;;;2.23;;
71176;SDS011;58877;51.992;4.504;2024-02-15T13:38:38;2.46;;;2.43;;
71176;SDS011;58877;51.992;4.504;2024-02-15T13:41:03;2.48;;;2.44;;
71176;SDS011;58877;51.992;4.504;2024-02-15T13:43:29;2.28;;;2.24;;
71176;SDS011;58877;51.992;4.504;2024-02-15T13:45:59;2.16;;;2.13;;
71176;SDS011;58877;51.992;4.504;2024-02-15T13:48:28;2.16;;;2.13;;
71176;SDS011;58877;51.992;4.504;2024-02-15T13:51:04;2.39;;;2.34;;
71176;SDS011;58877;51.992;4.504;2024-02-15T13:53:37;2.08;;;2.01;;
71176;SDS011;58877;51.992;4.504;2024-02-15T13:56:03;2.40;;;2.33;;
71176;SDS011;58877;51.992;4.504;2024-02-15T13:58:38;2.42;;;2.35;;
71176;SDS011;58877;51.992;4.504;2024-02-15T14:01:17;2.45;;;2.37;;
71176;SDS011;58877;51.992;4.504;2024-02-15T14:03:49;2.40;;;2.31;;
71176;SDS011;58877;51.992;4.504;2024-02-15T14:06:22;2.53;;;2.45;;
71176;SDS011;58877;51.992;4.504;2024-02-15T14:08:54;3.05;;;2.90;;
71176;SDS011;58877;51.992;4.504;2024-02-15T14:11:28;2.76;;;2.58;;
71176;SDS011;58877;51.992;4.504;2024-02-15T14:13:56;2.68;;;2.48;;
71176;SDS011;58877;51.992;4.504;2024-02-15T14:16:26;2.62;;;2.46;;
71176;SDS011;58877;51.992;4.504;2024-02-15T14:18:53;2.38;;;2.27;;
71176;SDS011;58877;51.992;4.504;2024-02-15T14:21:25;2.57;;;2.46;;
71176;SDS011;58877;51.992;4.504;2024-02-15T14:23:59;2.28;;;2.18;;
71176;SDS011;58877;51.992;4.504;2024-02-15T14:26:32;2.42;;;2.29;;
71176;SDS011;58877;51.992;4.504;2024-02-15T14:31:58;2.05;;;1.94;;
71176;SDS011;58877;51.992;4.504;2024-02-15T14:34:51;2.19;;;2.09;;
71176;SDS011;58877;51.992;4.504;2024-02-15T14:37:22;2.19;;;2.11;;
71176;SDS011;58877;51.992;4.504;2024-02-15T14:39:55;2.25;;;2.17;;
71176;SDS011;58877;51.992;4.504;2024-02-15T14:42:24;2.64;;;2.47;;
71176;SDS011;58877;51.992;4.504;2024-02-15T14:45:04;2.54;;;2.39;;
71176;SDS011;58877;51.992;4.504;2024-02-15T14:47:33;2.76;;;2.60;;
71176;SDS011;58877;51.992;4.504;2024-02-15T14:50:02;2.30;;;2.16;;
71176;SDS011;58877;51.992;4.504;2024-02-15T14:52:38;2.23;;;2.11;;
71176;SDS011;58877;51.992;4.504;2024-02-15T14:55:12;2.20;;;2.10;;
71176;SDS011;58877;51.992;4.504;2024-02-15T14:57:38;2.35;;;2.27;;
71176;SDS011;58877;51.992;4.504;2024-02-15T15:00:05;2.30;;;2.21;;
71176;SDS011;58877;51.992;4.504;2024-02-15T15:02:37;2.38;;;2.31;;
71176;SDS011;58877;51.992;4.504;2024-02-15T15:05:07;2.24;;;2.20;;
71176;SDS011;58877;51.992;4.504;2024-02-15T15:07:52;2.11;;;2.06;;
71176;SDS011;58877;51.992;4.504;2024-02-15T15:10:36;2.52;;;2.46;;
71176;SDS011;58877;51.992;4.504;2024-02-15T15:13:20;2.24;;;2.19;;
71176;SDS011;58877;51.992;4.504;2024-02-15T15:15:48;2.28;;;2.23;;
71176;SDS011;58877;51.992;4.504;2024-02-15T15:18:14;2.06;;;2.01;;
71176;SDS011;58877;51.992;4.504;2024-02-15T15:20:39;2.10;;;2.06;;
71176;SDS011;58877;51.992;4.504;2024-02-15T15:23:05;2.18;;;2.13;;
71176;SDS011;58877;51.992;4.504;2024-02-15T15:25:34;1.88;;;1.83;;
71176;SDS011;58877;51.992;4.504;2024-02-15T15:28:05;2.12;;;2.05;;
71176;SDS011;58877;51.992;4.504;2024-02-15T15:30:30;2.62;;;2.52;;
71176;SDS011;58877;51.992;4.504;2024-02-15T15:32:57;2.47;;;2.41;;